sensor_id;sensor_type;location;lat;lon;timestamp;P1;durP1;ratioP1;P2;durP2;ratioP2
13834;SDS011;6988;52.614;13.500;2022-10-30T00:02:15;25.37;;;20.83;;
13834;SDS011;6988;52.614;13.500;2022-10-30T00:07:07;29.23;;;20.50;;
13834;SDS011;6988;52.614;13.500;2022-10-30T00:11:59;27.13;;;20.67;;
13834;SDS011;6988;52.614;13.500;2022-10-30T00:16:51;24.20;;;20.37;;
13834;SDS011;6988;52.614;13.500;2022-10-30T00:21:44;30.13;;;22.77;;
13834;SDS011;6988;52.614;13.500;2022-10-30T00:26:36;28.77;;;21.07;;
13834;SDS011;6988;52.614;13.500;2022-10-30T00:31:28;31.87;;;22.73;;
13834;SDS011;6988;52.614;13.500;2022-10-30T00:36:20;30.90;;;23.63;;
13834;SDS011;6988;52.614;13.500;2022-10-30T00:41:14;29.77;;;22.40;;
13834;SDS011;6988;52.614;13.500;2022-10-30T00:46:14;31.73;;;22.03;;
13834;SDS011;6988;52.614;13.500;2022-10-30T00:51:10;34.77;;;25.13;;
13834;SDS011;6988;52.614;13.500;2022-10-30T00:56:05;30.50;;;23.80;;
13834;SDS011;6988;52.614;13.500;2022-10-30T01:01:01;33.47;;;23.67;;
13834;SDS011;6988;52.614;13.500;2022-10-30T01:06:01;30.30;;;21.47;;
13834;SDS011;6988;52.614;13.500;2022-10-30T01:10:58;33.23;;;23.83;;
13834;SDS011;6988;52.614;13.500;2022-10-30T01:15:56;27.07;;;21.53;;
13834;SDS011;6988;52.614;13.500;2022-10-30T01:21:11;30.33;;;21.93;;
13834;SDS011;6988;52.614;13.500;2022-10-30T01:26:25;24.07;;;20.40;;
13834;SDS011;6988;52.614;13.500;2022-10-30T01:31:40;27.90;;;22.87;;
13834;SDS011;6988;52.614;13.500;2022-10-30T01:36:48;31.87;;;24.70;;
13834;SDS011;6988;52.614;13.500;2022-10-30T01:41:47;30.70;;;24.17;;
13834;SDS011;6988;52.614;13.500;2022-10-30T01:52:10;31.00;;;23.50;;
13834;SDS011;6988;52.614;13.500;2022-10-30T01:57:11;48.83;;;24.90;;
13834;SDS011;6988;52.614;13.500;2022-10-30T02:02:21;67.63;;;23.87;;
13834;SDS011;6988;52.614;13.500;2022-10-30T02:07:13;26.77;;;21.53;;
13834;SDS011;6988;52.614;13.500;2022-10-30T02:12:11;47.70;;;22.63;;
13834;SDS011;6988;52.614;13.500;2022-10-30T02:17:04;72.13;;;21.70;;
13834;SDS011;6988;52.614;13.500;2022-10-30T02:22:00;80.60;;;21.77;;
13834;SDS011;6988;52.614;13.500;2022-10-30T02:26:52;43.60;;;21.00;;
13834;SDS011;6988;52.614;13.500;2022-10-30T02:31:44;32.40;;;20.33;;
13834;SDS011;6988;52.614;13.500;2022-10-30T02:36:36;23.97;;;20.10;;
13834;SDS011;6988;52.614;13.500;2022-10-30T02:41:29;22.37;;;19.27;;
13834;SDS011;6988;52.614;13.500;2022-10-30T02:46:21;23.43;;;20.73;;
13834;SDS011;6988;52.614;13.500;2022-10-30T02:51:13;19.80;;;16.40;;
13834;SDS011;6988;52.614;13.500;2022-10-30T02:56:06;23.13;;;18.63;;
13834;SDS011;6988;52.614;13.500;2022-10-30T03:01:08;25.23;;;20.47;;
13834;SDS011;6988;52.614;13.500;2022-10-30T03:06:03;25.47;;;20.10;;
13834;SDS011;6988;52.614;13.500;2022-10-30T03:10:58;24.37;;;17.97;;
13834;SDS011;6988;52.614;13.500;2022-10-30T03:15:51;20.73;;;16.17;;
13834;SDS011;6988;52.614;13.500;2022-10-30T03:20:44;19.10;;;16.20;;
13834;SDS011;6988;52.614;13.500;2022-10-30T03:25:36;17.30;;;15.00;;
13834;SDS011;6988;52.614;13.500;2022-10-30T03:30:28;18.23;;;16.40;;
13834;SDS011;6988;52.614;13.500;2022-10-30T03:35:24;20.93;;;15.87;;
13834;SDS011;6988;52.614;13.500;2022-10-30T03:40:17;18.53;;;16.40;;
13834;SDS011;6988;52.614;13.500;2022-10-30T03:45:09;21.47;;;15.73;;
13834;SDS011;6988;52.614;13.500;2022-10-30T03:50:01;17.80;;;14.70;;
13834;SDS011;6988;52.614;13.500;2022-10-30T03:54:53;15.73;;;13.67;;
13834;SDS011;6988;52.614;13.500;2022-10-30T03:59:47;13.87;;;12.50;;
13834;SDS011;6988;52.614;13.500;2022-10-30T04:04:59;13.67;;;12.10;;
13834;SDS011;6988;52.614;13.500;2022-10-30T04:09:51;13.30;;;11.90;;
13834;SDS011;6988;52.614;13.500;2022-10-30T04:14:43;18.70;;;15.23;;
13834;SDS011;6988;52.614;13.500;2022-10-30T04:19:36;17.27;;;15.10;;
13834;SDS011;6988;52.614;13.500;2022-10-30T04:24:28;17.03;;;14.50;;
13834;SDS011;6988;52.614;13.500;2022-10-30T04:29:21;20.07;;;15.13;;
13834;SDS011;6988;52.614;13.500;2022-10-30T04:34:13;17.83;;;14.37;;
13834;SDS011;6988;52.614;13.500;2022-10-30T04:39:08;19.20;;;14.57;;
13834;SDS011;6988;52.614;13.500;2022-10-30T04:44:00;24.17;;;15.93;;
13834;SDS011;6988;52.614;13.500;2022-10-30T04:48:54;26.70;;;17.67;;
13834;SDS011;6988;52.614;13.500;2022-10-30T04:53:46;23.23;;;17.10;;
13834;SDS011;6988;52.614;13.500;2022-10-30T04:58:40;19.23;;;15.83;;
13834;SDS011;6988;52.614;13.500;2022-10-30T05:03:33;24.80;;;18.13;;
13834;SDS011;6988;52.614;13.500;2022-10-30T05:08:28;22.97;;;17.03;;
13834;SDS011;6988;52.614;13.500;2022-10-30T05:13:22;21.73;;;16.30;;
13834;SDS011;6988;52.614;13.500;2022-10-30T05:18:18;24.20;;;17.43;;
13834;SDS011;6988;52.614;13.500;2022-10-30T05:23:10;27.60;;;18.30;;
13834;SDS011;6988;52.614;13.500;2022-10-30T05:28:03;24.53;;;18.27;;
13834;SDS011;6988;52.614;13.500;2022-10-30T05:33:04;24.87;;;18.90;;
13834;SDS011;6988;52.614;13.500;2022-10-30T05:38:01;27.90;;;19.37;;
13834;SDS011;6988;52.614;13.500;2022-10-30T05:42:56;24.30;;;19.63;;
13834;SDS011;6988;52.614;13.500;2022-10-30T05:47:53;28.50;;;19.30;;
13834;SDS011;6988;52.614;13.500;2022-10-30T05:52:46;24.27;;;17.63;;
13834;SDS011;6988;52.614;13.500;2022-10-30T05:57:40;27.37;;;18.73;;
13834;SDS011;6988;52.614;13.500;2022-10-30T06:02:32;25.10;;;17.23;;
13834;SDS011;6988;52.614;13.500;2022-10-30T06:07:24;25.03;;;16.80;;
13834;SDS011;6988;52.614;13.500;2022-10-30T06:12:16;26.00;;;15.97;;
13834;SDS011;6988;52.614;13.500;2022-10-30T06:17:30;22.57;;;15.53;;
13834;SDS011;6988;52.614;13.500;2022-10-30T06:22:55;25.57;;;16.83;;
13834;SDS011;6988;52.614;13.500;2022-10-30T06:27:52;23.07;;;16.63;;
13834;SDS011;6988;52.614;13.500;2022-10-30T06:32:45;18.73;;;15.43;;
13834;SDS011;6988;52.614;13.500;2022-10-30T06:37:37;23.70;;;16.13;;
13834;SDS011;6988;52.614;13.500;2022-10-30T06:42:40;22.97;;;17.20;;
13834;SDS011;6988;52.614;13.500;2022-10-30T06:47:47;22.00;;;14.27;;
13834;SDS011;6988;52.614;13.500;2022-10-30T06:52:39;25.67;;;16.53;;
13834;SDS011;6988;52.614;13.500;2022-10-30T06:57:32;24.37;;;17.00;;
13834;SDS011;6988;52.614;13.500;2022-10-30T07:02:39;26.43;;;17.77;;
13834;SDS011;6988;52.614;13.500;2022-10-30T07:07:34;24.60;;;16.37;;
13834;SDS011;6988;52.614;13.500;2022-10-30T07:12:26;24.57;;;16.40;;
13834;SDS011;6988;52.614;13.500;2022-10-30T07:17:23;25.40;;;17.07;;
13834;SDS011;6988;52.614;13.500;2022-10-30T07:22:20;23.40;;;17.27;;
13834;SDS011;6988;52.614;13.500;2022-10-30T07:27:17;26.33;;;18.33;;
13834;SDS011;6988;52.614;13.500;2022-10-30T07:32:14;23.50;;;15.83;;
13834;SDS011;6988;52.614;13.500;2022-10-30T07:37:31;26.27;;;16.43;;
13834;SDS011;6988;52.614;13.500;2022-10-30T07:42:31;25.63;;;16.63;;
13834;SDS011;6988;52.614;13.500;2022-10-30T07:47:37;25.70;;;16.80;;
13834;SDS011;6988;52.614;13.500;2022-10-30T07:52:40;22.57;;;16.23;;
13834;SDS011;6988;52.614;13.500;2022-10-30T07:57:35;22.27;;;15.13;;
13834;SDS011;6988;52.614;13.500;2022-10-30T08:02:48;19.97;;;15.47;;
13834;SDS011;6988;52.614;13.500;2022-10-30T08:07:50;24.37;;;14.43;;
13834;SDS011;6988;52.614;13.500;2022-10-30T08:12:44;21.00;;;14.63;;
13834;SDS011;6988;52.614;13.500;2022-10-30T08:17:40;17.50;;;13.60;;
13834;SDS011;6988;52.614;13.500;2022-10-30T08:22:34;18.17;;;13.63;;
13834;SDS011;6988;52.614;13.500;2022-10-30T08:27:33;19.60;;;14.00;;
13834;SDS011;6988;52.614;13.500;2022-10-30T08:32:28;17.57;;;12.00;;
13834;SDS011;6988;52.614;13.500;2022-10-30T08:37:49;19.03;;;11.13;;
13834;SDS011;6988;52.614;13.500;2022-10-30T08:42:49;15.87;;;10.87;;
13834;SDS011;6988;52.614;13.500;2022-10-30T08:47:46;19.40;;;11.60;;
13834;SDS011;6988;52.614;13.500;2022-10-30T08:52:39;18.17;;;11.30;;
13834;SDS011;6988;52.614;13.500;2022-10-30T08:57:33;18.60;;;11.30;;
13834;SDS011;6988;52.614;13.500;2022-10-30T09:02:27;19.07;;;11.27;;
13834;SDS011;6988;52.614;13.500;2022-10-30T09:07:43;15.23;;;10.67;;
13834;SDS011;6988;52.614;13.500;2022-10-30T09:12:54;16.10;;;9.97;;
13834;SDS011;6988;52.614;13.500;2022-10-30T09:17:47;21.60;;;11.23;;
13834;SDS011;6988;52.614;13.500;2022-10-30T09:22:48;16.40;;;10.67;;
13834;SDS011;6988;52.614;13.500;2022-10-30T09:27:41;19.93;;;10.07;;
13834;SDS011;6988;52.614;13.500;2022-10-30T09:32:34;17.03;;;9.53;;
13834;SDS011;6988;52.614;13.500;2022-10-30T09:37:32;17.40;;;8.80;;
13834;SDS011;6988;52.614;13.500;2022-10-30T09:42:34;18.43;;;8.40;;
13834;SDS011;6988;52.614;13.500;2022-10-30T09:47:38;14.17;;;8.67;;
13834;SDS011;6988;52.614;13.500;2022-10-30T09:52:49;12.30;;;7.87;;
13834;SDS011;6988;52.614;13.500;2022-10-30T09:57:56;16.13;;;8.23;;
13834;SDS011;6988;52.614;13.500;2022-10-30T10:03:16;16.80;;;8.73;;
13834;SDS011;6988;52.614;13.500;2022-10-30T10:08:43;19.77;;;9.73;;
13834;SDS011;6988;52.614;13.500;2022-10-30T10:14:06;13.83;;;9.27;;
13834;SDS011;6988;52.614;13.500;2022-10-30T10:19:08;16.40;;;7.90;;
13834;SDS011;6988;52.614;13.500;2022-10-30T10:24:11;17.63;;;8.73;;
13834;SDS011;6988;52.614;13.500;2022-10-30T10:29:18;16.13;;;7.47;;
13834;SDS011;6988;52.614;13.500;2022-10-30T10:34:37;12.87;;;7.13;;
13834;SDS011;6988;52.614;13.500;2022-10-30T10:39:55;11.77;;;6.17;;
13834;SDS011;6988;52.614;13.500;2022-10-30T10:45:15;13.57;;;6.37;;
13834;SDS011;6988;52.614;13.500;2022-10-30T10:50:18;16.73;;;6.73;;
13834;SDS011;6988;52.614;13.500;2022-10-30T10:55:16;13.33;;;5.97;;
13834;SDS011;6988;52.614;13.500;2022-10-30T11:00:15;14.03;;;6.13;;
13834;SDS011;6988;52.614;13.500;2022-10-30T11:05:12;13.60;;;6.60;;
13834;SDS011;6988;52.614;13.500;2022-10-30T11:10:15;13.47;;;6.47;;
13834;SDS011;6988;52.614;13.500;2022-10-30T11:15:28;13.93;;;6.70;;
13834;SDS011;6988;52.614;13.500;2022-10-30T11:20:35;9.97;;;5.50;;
13834;SDS011;6988;52.614;13.500;2022-10-30T11:25:32;13.67;;;5.93;;
13834;SDS011;6988;52.614;13.500;2022-10-30T11:30:27;17.53;;;5.93;;
13834;SDS011;6988;52.614;13.500;2022-10-30T11:35:19;11.10;;;5.50;;
13834;SDS011;6988;52.614;13.500;2022-10-30T11:40:16;10.27;;;5.63;;
13834;SDS011;6988;52.614;13.500;2022-10-30T11:45:12;12.23;;;5.63;;
13834;SDS011;6988;52.614;13.500;2022-10-30T11:50:15;12.77;;;5.60;;
13834;SDS011;6988;52.614;13.500;2022-10-30T11:55:13;11.73;;;5.50;;
13834;SDS011;6988;52.614;13.500;2022-10-30T12:00:13;10.73;;;5.82;;
13834;SDS011;6988;52.614;13.500;2022-10-30T12:10:29;12.30;;;5.28;;
13834;SDS011;6988;52.614;13.500;2022-10-30T12:15:22;11.43;;;4.93;;
13834;SDS011;6988;52.614;13.500;2022-10-30T12:20:17;12.43;;;5.03;;
13834;SDS011;6988;52.614;13.500;2022-10-30T12:25:17;10.85;;;5.32;;
13834;SDS011;6988;52.614;13.500;2022-10-30T12:30:15;12.57;;;5.18;;
13834;SDS011;6988;52.614;13.500;2022-10-30T12:35:17;9.93;;;4.30;;
13834;SDS011;6988;52.614;13.500;2022-10-30T12:40:34;12.52;;;4.93;;
13834;SDS011;6988;52.614;13.500;2022-10-30T12:45:33;12.00;;;4.90;;
13834;SDS011;6988;52.614;13.500;2022-10-30T12:50:35;13.23;;;4.88;;
13834;SDS011;6988;52.614;13.500;2022-10-30T12:55:37;17.45;;;5.10;;
13834;SDS011;6988;52.614;13.500;2022-10-30T13:00:35;14.93;;;4.82;;
13834;SDS011;6988;52.614;13.500;2022-10-30T13:05:38;12.48;;;4.68;;
13834;SDS011;6988;52.614;13.500;2022-10-30T13:10:40;20.17;;;5.03;;
13834;SDS011;6988;52.614;13.500;2022-10-30T13:15:41;12.48;;;4.70;;
13834;SDS011;6988;52.614;13.500;2022-10-30T13:20:38;11.90;;;4.78;;
13834;SDS011;6988;52.614;13.500;2022-10-30T13:25:33;10.02;;;4.35;;
13834;SDS011;6988;52.614;13.500;2022-10-30T13:30:38;11.50;;;5.05;;
13834;SDS011;6988;52.614;13.500;2022-10-30T13:35:36;15.13;;;4.88;;
13834;SDS011;6988;52.614;13.500;2022-10-30T13:40:42;11.35;;;4.72;;
13834;SDS011;6988;52.614;13.500;2022-10-30T13:45:51;9.15;;;4.28;;
13834;SDS011;6988;52.614;13.500;2022-10-30T13:51:21;9.52;;;4.43;;
13834;SDS011;6988;52.614;13.500;2022-10-30T13:56:26;14.40;;;5.25;;
13834;SDS011;6988;52.614;13.500;2022-10-30T14:01:19;9.32;;;4.72;;
13834;SDS011;6988;52.614;13.500;2022-10-30T14:06:23;12.15;;;5.18;;
13834;SDS011;6988;52.614;13.500;2022-10-30T14:11:31;8.80;;;4.38;;
13834;SDS011;6988;52.614;13.500;2022-10-30T14:16:31;12.45;;;4.75;;
13834;SDS011;6988;52.614;13.500;2022-10-30T14:21:35;10.75;;;5.35;;
13834;SDS011;6988;52.614;13.500;2022-10-30T14:26:31;10.57;;;4.50;;
13834;SDS011;6988;52.614;13.500;2022-10-30T14:31:33;9.13;;;4.63;;
13834;SDS011;6988;52.614;13.500;2022-10-30T14:41:44;13.30;;;4.80;;
13834;SDS011;6988;52.614;13.500;2022-10-30T14:46:54;9.10;;;4.75;;
13834;SDS011;6988;52.614;13.500;2022-10-30T14:52:20;10.13;;;4.63;;
13834;SDS011;6988;52.614;13.500;2022-10-30T15:02:41;10.82;;;5.57;;
13834;SDS011;6988;52.614;13.500;2022-10-30T15:07:48;11.15;;;5.18;;
13834;SDS011;6988;52.614;13.500;2022-10-30T15:12:50;9.93;;;5.07;;
13834;SDS011;6988;52.614;13.500;2022-10-30T15:17:57;11.37;;;5.70;;
13834;SDS011;6988;52.614;13.500;2022-10-30T15:22:54;16.30;;;5.03;;
13834;SDS011;6988;52.614;13.500;2022-10-30T15:27:51;11.93;;;6.03;;
13834;SDS011;6988;52.614;13.500;2022-10-30T15:32:47;13.07;;;5.50;;
13834;SDS011;6988;52.614;13.500;2022-10-30T15:37:39;12.27;;;5.27;;
13834;SDS011;6988;52.614;13.500;2022-10-30T15:42:47;13.40;;;6.53;;
13834;SDS011;6988;52.614;13.500;2022-10-30T15:47:44;13.30;;;6.10;;
13834;SDS011;6988;52.614;13.500;2022-10-30T15:52:42;9.80;;;5.63;;
13834;SDS011;6988;52.614;13.500;2022-10-30T15:57:35;9.87;;;6.20;;
13834;SDS011;6988;52.614;13.500;2022-10-30T16:02:34;12.97;;;5.90;;
13834;SDS011;6988;52.614;13.500;2022-10-30T16:07:26;11.20;;;6.77;;
13834;SDS011;6988;52.614;13.500;2022-10-30T16:12:19;14.03;;;7.20;;
13834;SDS011;6988;52.614;13.500;2022-10-30T16:17:14;16.23;;;7.80;;
13834;SDS011;6988;52.614;13.500;2022-10-30T16:22:09;17.60;;;7.27;;
13834;SDS011;6988;52.614;13.500;2022-10-30T16:27:13;16.57;;;7.27;;
13834;SDS011;6988;52.614;13.500;2022-10-30T16:32:08;13.83;;;8.07;;
13834;SDS011;6988;52.614;13.500;2022-10-30T16:37:07;12.27;;;7.27;;
13834;SDS011;6988;52.614;13.500;2022-10-30T16:42:16;11.27;;;7.03;;
13834;SDS011;6988;52.614;13.500;2022-10-30T16:47:21;14.23;;;7.23;;
13834;SDS011;6988;52.614;13.500;2022-10-30T16:52:25;15.33;;;8.10;;
13834;SDS011;6988;52.614;13.500;2022-10-30T16:57:25;16.53;;;9.07;;
13834;SDS011;6988;52.614;13.500;2022-10-30T17:02:20;14.47;;;8.17;;
13834;SDS011;6988;52.614;13.500;2022-10-30T17:07:18;13.77;;;8.00;;
13834;SDS011;6988;52.614;13.500;2022-10-30T17:12:14;13.53;;;8.60;;
13834;SDS011;6988;52.614;13.500;2022-10-30T17:17:19;14.63;;;8.37;;
13834;SDS011;6988;52.614;13.500;2022-10-30T17:22:19;20.00;;;8.90;;
13834;SDS011;6988;52.614;13.500;2022-10-30T17:27:24;13.90;;;8.20;;
13834;SDS011;6988;52.614;13.500;2022-10-30T17:32:42;15.97;;;7.67;;
13834;SDS011;6988;52.614;13.500;2022-10-30T17:37:37;16.93;;;7.87;;
13834;SDS011;6988;52.614;13.500;2022-10-30T17:42:28;13.57;;;7.30;;
13834;SDS011;6988;52.614;13.500;2022-10-30T17:47:20;13.80;;;8.23;;
13834;SDS011;6988;52.614;13.500;2022-10-30T17:52:13;14.13;;;8.73;;
13834;SDS011;6988;52.614;13.500;2022-10-30T17:57:09;15.37;;;8.97;;
13834;SDS011;6988;52.614;13.500;2022-10-30T18:02:07;16.17;;;8.53;;
13834;SDS011;6988;52.614;13.500;2022-10-30T18:07:03;19.07;;;9.57;;
13834;SDS011;6988;52.614;13.500;2022-10-30T18:11:55;19.47;;;11.63;;
13834;SDS011;6988;52.614;13.500;2022-10-30T18:16:48;20.93;;;12.17;;
13834;SDS011;6988;52.614;13.500;2022-10-30T18:21:40;17.90;;;10.47;;
13834;SDS011;6988;52.614;13.500;2022-10-30T18:26:34;19.37;;;11.87;;
13834;SDS011;6988;52.614;13.500;2022-10-30T18:31:26;23.83;;;13.57;;
13834;SDS011;6988;52.614;13.500;2022-10-30T18:36:20;21.97;;;14.43;;
13834;SDS011;6988;52.614;13.500;2022-10-30T18:41:14;20.23;;;13.63;;
13834;SDS011;6988;52.614;13.500;2022-10-30T18:46:08;19.93;;;12.30;;
13834;SDS011;6988;52.614;13.500;2022-10-30T18:51:02;17.20;;;11.40;;
13834;SDS011;6988;52.614;13.500;2022-10-30T18:55:56;19.00;;;10.30;;
13834;SDS011;6988;52.614;13.500;2022-10-30T19:00:47;15.83;;;10.10;;
13834;SDS011;6988;52.614;13.500;2022-10-30T19:05:40;16.00;;;9.93;;
13834;SDS011;6988;52.614;13.500;2022-10-30T19:10:37;18.17;;;11.73;;
13834;SDS011;6988;52.614;13.500;2022-10-30T19:15:34;22.60;;;12.50;;
13834;SDS011;6988;52.614;13.500;2022-10-30T19:20:28;23.87;;;14.23;;
13834;SDS011;6988;52.614;13.500;2022-10-30T19:25:23;23.30;;;14.97;;
13834;SDS011;6988;52.614;13.500;2022-10-30T19:30:19;21.93;;;13.30;;
13834;SDS011;6988;52.614;13.500;2022-10-30T19:35:14;20.07;;;14.47;;
13834;SDS011;6988;52.614;13.500;2022-10-30T19:45:23;35.57;;;22.50;;
13834;SDS011;6988;52.614;13.500;2022-10-30T19:50:20;30.83;;;20.47;;
13834;SDS011;6988;52.614;13.500;2022-10-30T19:55:16;29.60;;;18.73;;
13834;SDS011;6988;52.614;13.500;2022-10-30T20:00:11;25.67;;;16.57;;
13834;SDS011;6988;52.614;13.500;2022-10-30T20:05:08;27.77;;;18.03;;
13834;SDS011;6988;52.614;13.500;2022-10-30T20:10:05;29.00;;;19.93;;
13834;SDS011;6988;52.614;13.500;2022-10-30T20:15:14;28.67;;;20.70;;
13834;SDS011;6988;52.614;13.500;2022-10-30T20:20:11;32.43;;;21.90;;
13834;SDS011;6988;52.614;13.500;2022-10-30T20:25:09;28.03;;;19.27;;
13834;SDS011;6988;52.614;13.500;2022-10-30T20:30:00;23.20;;;16.63;;
13834;SDS011;6988;52.614;13.500;2022-10-30T20:34:54;23.33;;;14.93;;
13834;SDS011;6988;52.614;13.500;2022-10-30T20:39:47;22.10;;;14.97;;
13834;SDS011;6988;52.614;13.500;2022-10-30T20:44:40;23.00;;;14.90;;
13834;SDS011;6988;52.614;13.500;2022-10-30T20:49:32;22.47;;;15.20;;
13834;SDS011;6988;52.614;13.500;2022-10-30T20:54:24;20.90;;;15.17;;
13834;SDS011;6988;52.614;13.500;2022-10-30T20:59:15;26.90;;;15.63;;
13834;SDS011;6988;52.614;13.500;2022-10-30T21:04:08;23.03;;;14.57;;
13834;SDS011;6988;52.614;13.500;2022-10-30T21:09:00;24.00;;;15.60;;
13834;SDS011;6988;52.614;13.500;2022-10-30T21:13:52;22.07;;;14.83;;
13834;SDS011;6988;52.614;13.500;2022-10-30T21:18:49;23.50;;;14.07;;
13834;SDS011;6988;52.614;13.500;2022-10-30T21:23:42;19.70;;;13.83;;
13834;SDS011;6988;52.614;13.500;2022-10-30T21:28:35;17.43;;;14.03;;
13834;SDS011;6988;52.614;13.500;2022-10-30T21:33:28;25.33;;;17.67;;
13834;SDS011;6988;52.614;13.500;2022-10-30T21:38:20;26.73;;;19.33;;
13834;SDS011;6988;52.614;13.500;2022-10-30T21:43:13;29.40;;;21.17;;
13834;SDS011;6988;52.614;13.500;2022-10-30T21:48:05;26.17;;;19.43;;
13834;SDS011;6988;52.614;13.500;2022-10-30T21:52:57;26.93;;;18.20;;
13834;SDS011;6988;52.614;13.500;2022-10-30T21:57:49;24.27;;;16.80;;
13834;SDS011;6988;52.614;13.500;2022-10-30T22:02:42;26.60;;;17.73;;
13834;SDS011;6988;52.614;13.500;2022-10-30T22:07:35;26.53;;;16.80;;
13834;SDS011;6988;52.614;13.500;2022-10-30T22:12:27;22.67;;;15.07;;
13834;SDS011;6988;52.614;13.500;2022-10-30T22:17:19;20.93;;;14.93;;
13834;SDS011;6988;52.614;13.500;2022-10-30T22:22:12;22.63;;;15.00;;
13834;SDS011;6988;52.614;13.500;2022-10-30T22:27:04;20.17;;;15.27;;
13834;SDS011;6988;52.614;13.500;2022-10-30T22:31:55;23.33;;;15.30;;
13834;SDS011;6988;52.614;13.500;2022-10-30T22:36:47;20.70;;;14.90;;
13834;SDS011;6988;52.614;13.500;2022-10-30T22:41:40;21.40;;;14.43;;
13834;SDS011;6988;52.614;13.500;2022-10-30T23:04:24;22.23;;;16.77;;
13834;SDS011;6988;52.614;13.500;2022-10-30T23:09:17;24.47;;;17.63;;
13834;SDS011;6988;52.614;13.500;2022-10-30T23:14:11;33.20;;;19.70;;
13834;SDS011;6988;52.614;13.500;2022-10-30T23:19:04;29.03;;;19.53;;
13834;SDS011;6988;52.614;13.500;2022-10-30T23:23:57;28.07;;;19.43;;
13834;SDS011;6988;52.614;13.500;2022-10-30T23:28:52;30.70;;;21.83;;
13834;SDS011;6988;52.614;13.500;2022-10-30T23:33:46;30.83;;;20.47;;
13834;SDS011;6988;52.614;13.500;2022-10-30T23:38:38;23.57;;;19.50;;
13834;SDS011;6988;52.614;13.500;2022-10-30T23:43:31;27.07;;;21.30;;
13834;SDS011;6988;52.614;13.500;2022-10-30T23:48:23;29.27;;;21.50;;
13834;SDS011;6988;52.614;13.500;2022-10-30T23:53:14;23.73;;;20.23;;
13834;SDS011;6988;52.614;13.500;2022-10-30T23:58:06;28.13;;;20.77;;
